sensor_id;sensor_type;location;lat;lon;timestamp;noise_LAeq;noise_LA_min;noise_LA_max;noise_LA01;noise_LA95
61321;Laerm;17737;52.586;13.284;2023-05-01T00:01:30;52.90;51.43;57.78;;
61321;Laerm;17737;52.586;13.284;2023-05-01T00:03:58;53.01;51.41;57.97;;
61321;Laerm;17737;52.586;13.284;2023-05-01T00:06:28;52.60;51.24;54.25;;
61321;Laerm;17737;52.586;13.284;2023-05-01T00:08:56;52.56;51.47;53.76;;
61321;Laerm;17737;52.586;13.284;2023-05-01T00:11:24;52.55;51.36;55.71;;
61321;Laerm;17737;52.586;13.284;2023-05-01T00:13:52;52.56;51.22;56.17;;
61321;Laerm;17737;52.586;13.284;2023-05-01T00:16:20;52.68;51.32;56.14;;
61321;Laerm;17737;52.586;13.284;2023-05-01T00:18:48;52.59;51.40;55.11;;
61321;Laerm;17737;52.586;13.284;2023-05-01T00:21:16;52.58;51.28;55.43;;
61321;Laerm;17737;52.586;13.284;2023-05-01T00:23:46;52.56;51.37;55.90;;
61321;Laerm;17737;52.586;13.284;2023-05-01T00:26:14;53.13;51.52;66.13;;
61321;Laerm;17737;52.586;13.284;2023-05-01T00:28:42;52.62;51.41;54.82;;
61321;Laerm;17737;52.586;13.284;2023-05-01T00:31:10;53.03;51.49;60.67;;
61321;Laerm;17737;52.586;13.284;2023-05-01T00:33:38;52.75;51.23;57.79;;
61321;Laerm;17737;52.586;13.284;2023-05-01T00:36:06;52.65;51.37;55.09;;
61321;Laerm;17737;52.586;13.284;2023-05-01T00:38:34;53.15;51.41;59.19;;
61321;Laerm;17737;52.586;13.284;2023-05-01T00:41:04;52.78;51.25;57.76;;
61321;Laerm;17737;52.586;13.284;2023-05-01T00:43:32;52.64;51.50;67.68;;
61321;Laerm;17737;52.586;13.284;2023-05-01T00:46:00;52.60;51.41;55.31;;
61321;Laerm;17737;52.586;13.284;2023-05-01T00:48:29;52.64;51.33;68.75;;
61321;Laerm;17737;52.586;13.284;2023-05-01T00:50:59;52.66;51.53;55.78;;
61321;Laerm;17737;52.586;13.284;2023-05-01T00:53:28;52.59;51.12;54.70;;
61321;Laerm;17737;52.586;13.284;2023-05-01T00:55:58;52.75;51.43;56.64;;
61321;Laerm;17737;52.586;13.284;2023-05-01T00:58:28;52.80;51.43;67.12;;
61321;Laerm;17737;52.586;13.284;2023-05-01T01:00:57;53.04;51.50;59.40;;
61321;Laerm;17737;52.586;13.284;2023-05-01T01:03:25;52.84;51.42;66.27;;
61321;Laerm;17737;52.586;13.284;2023-05-01T01:06:09;53.11;51.45;58.66;;
61321;Laerm;17737;52.586;13.284;2023-05-01T01:08:47;52.59;51.42;55.32;;
61321;Laerm;17737;52.586;13.284;2023-05-01T01:11:23;52.58;51.33;55.24;;
61321;Laerm;17737;52.586;13.284;2023-05-01T01:14:04;52.74;51.48;56.53;;
61321;Laerm;17737;52.586;13.284;2023-05-01T01:16:42;52.83;51.32;56.70;;
61321;Laerm;17737;52.586;13.284;2023-05-01T01:19:43;52.59;51.39;54.98;;
61321;Laerm;17737;52.586;13.284;2023-05-01T01:22:22;53.16;51.54;60.77;;
61321;Laerm;17737;52.586;13.284;2023-05-01T01:25:37;52.62;51.44;55.11;;
61321;Laerm;17737;52.586;13.284;2023-05-01T01:31:38;52.96;51.41;67.68;;
61321;Laerm;17737;52.586;13.284;2023-05-01T01:34:19;52.70;51.39;55.38;;
61321;Laerm;17737;52.586;13.284;2023-05-01T01:37:01;52.94;51.41;59.90;;
61321;Laerm;17737;52.586;13.284;2023-05-01T01:39:48;52.61;51.39;55.30;;
61321;Laerm;17737;52.586;13.284;2023-05-01T01:42:25;52.62;51.38;54.75;;
61321;Laerm;17737;52.586;13.284;2023-05-01T01:44:59;52.82;51.21;57.10;;
61321;Laerm;17737;52.586;13.284;2023-05-01T01:47:32;52.78;51.48;57.30;;
61321;Laerm;17737;52.586;13.284;2023-05-01T01:50:06;53.36;51.38;64.10;;
61321;Laerm;17737;52.586;13.284;2023-05-01T01:52:37;52.83;51.61;55.97;;
61321;Laerm;17737;52.586;13.284;2023-05-01T01:55:11;52.63;51.48;55.09;;
61321;Laerm;17737;52.586;13.284;2023-05-01T01:57:41;52.66;51.47;54.57;;
61321;Laerm;17737;52.586;13.284;2023-05-01T02:00:13;52.63;51.50;56.33;;
61321;Laerm;17737;52.586;13.284;2023-05-01T02:02:43;52.63;51.35;56.18;;
61321;Laerm;17737;52.586;13.284;2023-05-01T02:05:16;52.83;51.13;57.38;;
61321;Laerm;17737;52.586;13.284;2023-05-01T02:07:49;52.71;51.47;55.41;;
61321;Laerm;17737;52.586;13.284;2023-05-01T02:10:21;52.63;51.26;55.23;;
61321;Laerm;17737;52.586;13.284;2023-05-01T02:12:52;54.04;51.38;69.83;;
61321;Laerm;17737;52.586;13.284;2023-05-01T02:15:22;52.62;51.42;55.33;;
61321;Laerm;17737;52.586;13.284;2023-05-01T02:17:52;52.62;51.20;55.73;;
61321;Laerm;17737;52.586;13.284;2023-05-01T02:20:22;52.65;51.28;68.40;;
61321;Laerm;17737;52.586;13.284;2023-05-01T02:22:53;52.66;51.27;67.63;;
61321;Laerm;17737;52.586;13.284;2023-05-01T02:25:22;52.72;51.44;55.64;;
61321;Laerm;17737;52.586;13.284;2023-05-01T02:27:56;52.76;51.40;68.09;;
61321;Laerm;17737;52.586;13.284;2023-05-01T02:30:27;52.84;51.22;56.51;;
61321;Laerm;17737;52.586;13.284;2023-05-01T02:32:55;52.72;51.39;56.25;;
61321;Laerm;17737;52.586;13.284;2023-05-01T02:35:25;52.67;51.47;67.62;;
61321;Laerm;17737;52.586;13.284;2023-05-01T02:37:53;52.70;51.48;67.90;;
61321;Laerm;17737;52.586;13.284;2023-05-01T02:40:21;52.66;51.45;54.72;;
61321;Laerm;17737;52.586;13.284;2023-05-01T02:42:51;52.67;51.34;66.79;;
61321;Laerm;17737;52.586;13.284;2023-05-01T02:45:22;52.82;51.45;68.00;;
61321;Laerm;17737;52.586;13.284;2023-05-01T02:47:56;53.11;51.61;58.04;;
61321;Laerm;17737;52.586;13.284;2023-05-01T02:50:28;52.66;51.55;55.14;;
61321;Laerm;17737;52.586;13.284;2023-05-01T02:52:58;52.82;51.37;58.72;;
61321;Laerm;17737;52.586;13.284;2023-05-01T02:55:26;52.72;51.44;68.58;;
61321;Laerm;17737;52.586;13.284;2023-05-01T02:57:57;52.97;51.41;58.47;;
61321;Laerm;17737;52.586;13.284;2023-05-01T03:00:26;52.78;51.51;55.52;;
61321;Laerm;17737;52.586;13.284;2023-05-01T03:02:54;52.91;51.45;67.44;;
61321;Laerm;17737;52.586;13.284;2023-05-01T03:05:23;53.02;51.53;67.46;;
61321;Laerm;17737;52.586;13.284;2023-05-01T03:07:53;52.93;51.45;58.02;;
61321;Laerm;17737;52.586;13.284;2023-05-01T03:10:21;52.75;51.62;67.04;;
61321;Laerm;17737;52.586;13.284;2023-05-01T03:12:49;52.74;51.54;55.93;;
61321;Laerm;17737;52.586;13.284;2023-05-01T03:15:17;52.90;51.49;56.02;;
61321;Laerm;17737;52.586;13.284;2023-05-01T03:17:45;52.67;51.52;54.70;;
61321;Laerm;17737;52.586;13.284;2023-05-01T03:20:14;52.90;51.34;57.91;;
61321;Laerm;17737;52.586;13.284;2023-05-01T03:22:42;52.92;51.58;56.55;;
61321;Laerm;17737;52.586;13.284;2023-05-01T03:25:11;52.68;51.33;55.80;;
61321;Laerm;17737;52.586;13.284;2023-05-01T03:27:39;52.79;51.54;55.84;;
61321;Laerm;17737;52.586;13.284;2023-05-01T03:30:09;52.94;51.53;56.43;;
61321;Laerm;17737;52.586;13.284;2023-05-01T03:32:37;52.70;51.47;55.12;;
61321;Laerm;17737;52.586;13.284;2023-05-01T03:35:06;53.27;51.58;56.90;;
61321;Laerm;17737;52.586;13.284;2023-05-01T03:37:35;52.93;51.63;67.82;;
61321;Laerm;17737;52.586;13.284;2023-05-01T03:40:04;52.67;51.41;55.98;;
61321;Laerm;17737;52.586;13.284;2023-05-01T03:42:33;53.01;51.58;68.06;;
61321;Laerm;17737;52.586;13.284;2023-05-01T03:45:02;52.89;51.39;67.23;;
61321;Laerm;17737;52.586;13.284;2023-05-01T03:47:30;52.85;51.52;56.09;;
61321;Laerm;17737;52.586;13.284;2023-05-01T03:49:58;52.76;51.56;56.09;;
61321;Laerm;17737;52.586;13.284;2023-05-01T03:52:26;52.62;51.39;55.79;;
61321;Laerm;17737;52.586;13.284;2023-05-01T03:54:54;52.53;51.40;54.72;;
61321;Laerm;17737;52.586;13.284;2023-05-01T03:57:22;52.46;51.23;65.92;;
61321;Laerm;17737;52.586;13.284;2023-05-01T03:59:52;53.42;51.10;64.81;;
61321;Laerm;17737;52.586;13.284;2023-05-01T04:02:20;52.26;51.10;55.25;;
61321;Laerm;17737;52.586;13.284;2023-05-01T04:04:49;52.34;50.92;56.98;;
61321;Laerm;17737;52.586;13.284;2023-05-01T04:07:17;52.16;50.73;55.78;;
61321;Laerm;17737;52.586;13.284;2023-05-01T04:09:45;51.92;50.72;53.18;;
61321;Laerm;17737;52.586;13.284;2023-05-01T04:12:13;51.80;50.55;63.09;;
61321;Laerm;17737;52.586;13.284;2023-05-01T04:14:41;52.36;50.40;58.67;;
61321;Laerm;17737;52.586;13.284;2023-05-01T04:17:11;51.86;50.61;55.20;;
61321;Laerm;17737;52.586;13.284;2023-05-01T04:19:39;51.98;50.33;59.36;;
61321;Laerm;17737;52.586;13.284;2023-05-01T04:22:07;51.76;50.40;54.94;;
61321;Laerm;17737;52.586;13.284;2023-05-01T04:24:36;52.21;50.56;59.52;;
61321;Laerm;17737;52.586;13.284;2023-05-01T04:27:04;52.35;50.38;58.41;;
61321;Laerm;17737;52.586;13.284;2023-05-01T04:29:32;52.04;50.53;56.60;;
61321;Laerm;17737;52.586;13.284;2023-05-01T04:32:00;51.78;50.67;53.24;;
61321;Laerm;17737;52.586;13.284;2023-05-01T04:34:29;52.01;50.65;55.20;;
61321;Laerm;17737;52.586;13.284;2023-05-01T04:36:58;52.12;50.63;58.41;;
61321;Laerm;17737;52.586;13.284;2023-05-01T04:39:27;52.03;50.21;58.45;;
61321;Laerm;17737;52.586;13.284;2023-05-01T04:41:55;51.63;50.12;57.07;;
61321;Laerm;17737;52.586;13.284;2023-05-01T04:44:24;51.76;49.99;56.93;;
61321;Laerm;17737;52.586;13.284;2023-05-01T04:46:52;51.54;50.13;52.93;;
61321;Laerm;17737;52.586;13.284;2023-05-01T04:49:21;51.91;50.74;53.50;;
61321;Laerm;17737;52.586;13.284;2023-05-01T04:51:50;52.39;50.55;57.02;;
61321;Laerm;17737;52.586;13.284;2023-05-01T04:54:18;52.17;50.76;56.89;;
61321;Laerm;17737;52.586;13.284;2023-05-01T04:56:46;51.88;50.74;53.61;;
61321;Laerm;17737;52.586;13.284;2023-05-01T04:59:14;52.20;50.90;55.93;;
61321;Laerm;17737;52.586;13.284;2023-05-01T05:01:42;51.98;50.73;55.35;;
61321;Laerm;17737;52.586;13.284;2023-05-01T05:04:10;51.84;50.48;57.64;;
61321;Laerm;17737;52.586;13.284;2023-05-01T05:06:39;52.38;50.75;58.43;;
61321;Laerm;17737;52.586;13.284;2023-05-01T05:09:08;51.79;50.62;53.66;;
61321;Laerm;17737;52.586;13.284;2023-05-01T05:11:37;52.22;50.68;56.88;;
61321;Laerm;17737;52.586;13.284;2023-05-01T05:14:05;52.37;50.75;57.44;;
61321;Laerm;17737;52.586;13.284;2023-05-01T05:16:33;51.77;50.57;53.02;;
61321;Laerm;17737;52.586;13.284;2023-05-01T05:19:01;51.94;50.62;56.21;;
61321;Laerm;17737;52.586;13.284;2023-05-01T05:21:29;51.54;50.36;52.96;;
61321;Laerm;17737;52.586;13.284;2023-05-01T05:23:58;52.70;50.28;60.96;;
61321;Laerm;17737;52.586;13.284;2023-05-01T05:26:27;52.00;50.55;57.09;;
61321;Laerm;17737;52.586;13.284;2023-05-01T05:28:55;52.14;50.54;60.98;;
61321;Laerm;17737;52.586;13.284;2023-05-01T05:31:23;52.36;50.67;58.89;;
61321;Laerm;17737;52.586;13.284;2023-05-01T05:33:52;52.06;50.68;55.00;;
61321;Laerm;17737;52.586;13.284;2023-05-01T05:36:20;52.37;50.77;60.54;;
61321;Laerm;17737;52.586;13.284;2023-05-01T05:38:48;52.83;50.73;62.92;;
61321;Laerm;17737;52.586;13.284;2023-05-01T05:41:16;52.23;50.72;55.82;;
61321;Laerm;17737;52.586;13.284;2023-05-01T05:43:45;52.56;50.43;59.63;;
61321;Laerm;17737;52.586;13.284;2023-05-01T05:46:13;52.15;50.95;63.04;;
61321;Laerm;17737;52.586;13.284;2023-05-01T05:48:41;52.09;50.63;57.31;;
61321;Laerm;17737;52.586;13.284;2023-05-01T05:51:09;52.62;50.34;58.24;;
61321;Laerm;17737;52.586;13.284;2023-05-01T05:53:37;52.96;50.83;62.22;;
61321;Laerm;17737;52.586;13.284;2023-05-01T05:56:06;52.46;50.78;57.49;;
61321;Laerm;17737;52.586;13.284;2023-05-01T05:58:34;52.37;50.75;64.28;;
61321;Laerm;17737;52.586;13.284;2023-05-01T06:01:04;52.16;50.57;55.67;;
61321;Laerm;17737;52.586;13.284;2023-05-01T06:03:34;52.73;50.99;57.30;;
61321;Laerm;17737;52.586;13.284;2023-05-01T06:06:03;52.51;50.90;57.12;;
61321;Laerm;17737;52.586;13.284;2023-05-01T06:08:32;52.19;50.90;63.79;;
61321;Laerm;17737;52.586;13.284;2023-05-01T06:11:01;52.83;50.89;65.77;;
61321;Laerm;17737;52.586;13.284;2023-05-01T06:13:29;52.52;50.75;60.24;;
61321;Laerm;17737;52.586;13.284;2023-05-01T06:15:58;52.39;50.87;65.28;;
61321;Laerm;17737;52.586;13.284;2023-05-01T06:18:28;52.77;50.93;59.59;;
61321;Laerm;17737;52.586;13.284;2023-05-01T06:20:57;52.15;50.79;58.80;;
61321;Laerm;17737;52.586;13.284;2023-05-01T06:23:25;52.10;50.70;64.23;;
61321;Laerm;17737;52.586;13.284;2023-05-01T06:25:54;52.63;50.92;58.09;;
61321;Laerm;17737;52.586;13.284;2023-05-01T06:28:22;52.01;50.95;54.66;;
61321;Laerm;17737;52.586;13.284;2023-05-01T06:30:50;52.47;50.78;57.59;;
61321;Laerm;17737;52.586;13.284;2023-05-01T06:33:18;52.54;50.96;57.52;;
61321;Laerm;17737;52.586;13.284;2023-05-01T06:35:47;52.34;50.79;62.92;;
61321;Laerm;17737;52.586;13.284;2023-05-01T06:38:18;52.61;50.76;64.03;;
61321;Laerm;17737;52.586;13.284;2023-05-01T06:40:48;51.92;50.57;54.59;;
61321;Laerm;17737;52.586;13.284;2023-05-01T06:43:16;52.79;50.65;65.46;;
61321;Laerm;17737;52.586;13.284;2023-05-01T06:45:44;51.94;50.77;54.04;;
61321;Laerm;17737;52.586;13.284;2023-05-01T06:48:12;52.23;50.76;57.04;;
61321;Laerm;17737;52.586;13.284;2023-05-01T06:50:40;52.83;50.73;60.72;;
61321;Laerm;17737;52.586;13.284;2023-05-01T06:53:09;52.07;50.68;57.16;;
61321;Laerm;17737;52.586;13.284;2023-05-01T06:55:37;52.84;50.64;64.95;;
61321;Laerm;17737;52.586;13.284;2023-05-01T06:58:05;52.43;50.62;57.27;;
61321;Laerm;17737;52.586;13.284;2023-05-01T07:00:49;52.65;50.82;59.33;;
61321;Laerm;17737;52.586;13.284;2023-05-01T07:03:17;52.43;50.52;57.25;;
61321;Laerm;17737;52.586;13.284;2023-05-01T07:05:45;52.15;50.63;56.88;;
61321;Laerm;17737;52.586;13.284;2023-05-01T07:08:15;53.62;50.61;61.37;;
61321;Laerm;17737;52.586;13.284;2023-05-01T07:10:43;52.01;50.74;66.58;;
61321;Laerm;17737;52.586;13.284;2023-05-01T07:13:11;52.04;50.74;55.84;;
61321;Laerm;17737;52.586;13.284;2023-05-01T07:15:41;52.94;50.63;59.42;;
61321;Laerm;17737;52.586;13.284;2023-05-01T07:18:09;52.32;50.76;57.43;;
61321;Laerm;17737;52.586;13.284;2023-05-01T07:20:37;52.99;50.90;61.45;;
61321;Laerm;17737;52.586;13.284;2023-05-01T07:23:05;52.24;50.68;57.84;;
61321;Laerm;17737;52.586;13.284;2023-05-01T07:25:37;52.66;50.29;64.24;;
61321;Laerm;17737;52.586;13.284;2023-05-01T07:28:07;53.16;50.82;60.83;;
61321;Laerm;17737;52.586;13.284;2023-05-01T07:30:35;52.57;50.53;56.59;;
61321;Laerm;17737;52.586;13.284;2023-05-01T07:33:03;52.72;50.48;56.76;;
61321;Laerm;17737;52.586;13.284;2023-05-01T07:35:32;52.07;50.58;63.92;;
61321;Laerm;17737;52.586;13.284;2023-05-01T07:38:00;52.93;50.69;58.78;;
61321;Laerm;17737;52.586;13.284;2023-05-01T07:40:28;53.01;50.78;59.38;;
61321;Laerm;17737;52.586;13.284;2023-05-01T07:42:58;52.33;50.56;57.74;;
61321;Laerm;17737;52.586;13.284;2023-05-01T07:45:26;52.43;50.63;62.53;;
61321;Laerm;17737;52.586;13.284;2023-05-01T07:47:54;52.70;50.71;57.23;;
61321;Laerm;17737;52.586;13.284;2023-05-01T07:50:23;52.92;50.88;58.61;;
61321;Laerm;17737;52.586;13.284;2023-05-01T07:52:51;52.22;50.76;57.17;;
61321;Laerm;17737;52.586;13.284;2023-05-01T07:55:20;53.01;50.80;58.39;;
61321;Laerm;17737;52.586;13.284;2023-05-01T07:57:49;52.61;50.88;65.21;;
61321;Laerm;17737;52.586;13.284;2023-05-01T08:00:19;52.24;50.63;57.66;;
61321;Laerm;17737;52.586;13.284;2023-05-01T08:02:46;52.39;50.56;56.05;;
61321;Laerm;17737;52.586;13.284;2023-05-01T08:05:15;52.93;50.77;57.94;;
61321;Laerm;17737;52.586;13.284;2023-05-01T08:07:43;52.91;50.79;59.90;;
61321;Laerm;17737;52.586;13.284;2023-05-01T08:10:11;53.13;50.68;63.90;;
61321;Laerm;17737;52.586;13.284;2023-05-01T08:12:40;52.74;50.56;65.57;;
61321;Laerm;17737;52.586;13.284;2023-05-01T08:15:09;52.69;50.72;59.18;;
61321;Laerm;17737;52.586;13.284;2023-05-01T08:17:38;52.66;49.96;57.09;;
61321;Laerm;17737;52.586;13.284;2023-05-01T08:20:08;52.44;50.89;63.15;;
61321;Laerm;17737;52.586;13.284;2023-05-01T08:22:36;53.18;50.81;59.65;;
61321;Laerm;17737;52.586;13.284;2023-05-01T08:25:05;52.68;50.62;60.87;;
61321;Laerm;17737;52.586;13.284;2023-05-01T08:27:33;54.32;50.41;63.84;;
61321;Laerm;17737;52.586;13.284;2023-05-01T08:30:02;52.73;50.28;59.48;;
61321;Laerm;17737;52.586;13.284;2023-05-01T08:32:30;53.27;50.42;65.24;;
61321;Laerm;17737;52.586;13.284;2023-05-01T08:35:00;53.30;50.63;62.04;;
61321;Laerm;17737;52.586;13.284;2023-05-01T08:37:29;53.11;50.84;62.09;;
61321;Laerm;17737;52.586;13.284;2023-05-01T08:39:57;52.10;50.77;57.47;;
61321;Laerm;17737;52.586;13.284;2023-05-01T08:42:25;53.54;50.85;58.07;;
61321;Laerm;17737;52.586;13.284;2023-05-01T08:45:00;52.87;50.69;57.22;;
61321;Laerm;17737;52.586;13.284;2023-05-01T08:47:29;52.55;50.76;56.69;;
61321;Laerm;17737;52.586;13.284;2023-05-01T08:50:00;53.12;50.75;62.33;;
61321;Laerm;17737;52.586;13.284;2023-05-01T08:52:30;53.46;50.92;60.03;;
61321;Laerm;17737;52.586;13.284;2023-05-01T08:55:00;53.29;50.69;60.21;;
61321;Laerm;17737;52.586;13.284;2023-05-01T08:57:29;53.67;50.58;58.54;;
61321;Laerm;17737;52.586;13.284;2023-05-01T09:00:00;53.23;50.44;62.65;;
61321;Laerm;17737;52.586;13.284;2023-05-01T09:02:34;53.84;50.53;63.27;;
61321;Laerm;17737;52.586;13.284;2023-05-01T09:05:06;52.76;50.47;57.59;;
61321;Laerm;17737;52.586;13.284;2023-05-01T09:07:35;53.12;50.86;56.92;;
61321;Laerm;17737;52.586;13.284;2023-05-01T09:10:06;53.19;50.36;61.23;;
61321;Laerm;17737;52.586;13.284;2023-05-01T09:12:34;52.27;50.11;61.46;;
61321;Laerm;17737;52.586;13.284;2023-05-01T09:15:04;53.00;50.55;61.70;;
61321;Laerm;17737;52.586;13.284;2023-05-01T09:17:34;52.67;50.55;58.55;;
61321;Laerm;17737;52.586;13.284;2023-05-01T09:20:07;54.73;50.40;68.86;;
61321;Laerm;17737;52.586;13.284;2023-05-01T09:22:35;53.75;50.48;61.63;;
61321;Laerm;17737;52.586;13.284;2023-05-01T09:25:04;52.23;50.47;60.31;;
61321;Laerm;17737;52.586;13.284;2023-05-01T09:27:33;53.22;50.36;63.32;;
61321;Laerm;17737;52.586;13.284;2023-05-01T09:30:03;52.55;50.56;57.14;;
61321;Laerm;17737;52.586;13.284;2023-05-01T09:32:32;53.38;50.54;60.40;;
61321;Laerm;17737;52.586;13.284;2023-05-01T09:35:12;53.68;50.41;62.08;;
61321;Laerm;17737;52.586;13.284;2023-05-01T09:37:48;52.10;50.48;64.53;;
61321;Laerm;17737;52.586;13.284;2023-05-01T09:40:16;52.62;50.58;56.51;;
61321;Laerm;17737;52.586;13.284;2023-05-01T09:42:50;53.43;50.84;65.40;;
61321;Laerm;17737;52.586;13.284;2023-05-01T09:45:19;53.20;50.24;59.66;;
61321;Laerm;17737;52.586;13.284;2023-05-01T09:47:47;54.74;50.53;63.97;;
61321;Laerm;17737;52.586;13.284;2023-05-01T09:50:30;52.79;50.35;57.94;;
61321;Laerm;17737;52.586;13.284;2023-05-01T09:53:01;53.52;50.50;60.51;;
61321;Laerm;17737;52.586;13.284;2023-05-01T09:55:30;52.80;50.29;58.64;;
61321;Laerm;17737;52.586;13.284;2023-05-01T09:57:59;52.95;50.42;60.00;;
61321;Laerm;17737;52.586;13.284;2023-05-01T10:00:27;52.64;50.20;60.52;;
61321;Laerm;17737;52.586;13.284;2023-05-01T10:02:56;52.82;50.88;58.89;;
61321;Laerm;17737;52.586;13.284;2023-05-01T10:05:24;54.32;50.88;63.44;;
61321;Laerm;17737;52.586;13.284;2023-05-01T10:07:59;52.70;50.67;61.11;;
61321;Laerm;17737;52.586;13.284;2023-05-01T10:10:28;53.08;50.64;57.55;;
61321;Laerm;17737;52.586;13.284;2023-05-01T10:13:12;53.87;50.74;63.04;;
61321;Laerm;17737;52.586;13.284;2023-05-01T10:15:41;53.43;50.67;59.83;;
61321;Laerm;17737;52.586;13.284;2023-05-01T10:18:10;52.91;50.48;57.32;;
61321;Laerm;17737;52.586;13.284;2023-05-01T10:20:38;52.56;50.55;57.65;;
61321;Laerm;17737;52.586;13.284;2023-05-01T10:23:08;53.35;50.70;57.90;;
61321;Laerm;17737;52.586;13.284;2023-05-01T10:25:40;53.04;50.63;58.43;;
61321;Laerm;17737;52.586;13.284;2023-05-01T10:28:10;52.82;50.59;56.95;;
61321;Laerm;17737;52.586;13.284;2023-05-01T10:30:40;53.14;50.59;58.90;;
61321;Laerm;17737;52.586;13.284;2023-05-01T10:33:12;52.85;50.64;62.40;;
61321;Laerm;17737;52.586;13.284;2023-05-01T10:35:44;53.73;50.52;67.82;;
61321;Laerm;17737;52.586;13.284;2023-05-01T10:38:25;53.03;50.48;58.90;;
61321;Laerm;17737;52.586;13.284;2023-05-01T10:40:57;52.98;50.49;58.41;;
61321;Laerm;17737;52.586;13.284;2023-05-01T10:43:29;53.96;50.64;60.45;;
61321;Laerm;17737;52.586;13.284;2023-05-01T10:46:27;53.06;50.44;61.03;;
61321;Laerm;17737;52.586;13.284;2023-05-01T10:48:56;53.36;50.49;59.39;;
61321;Laerm;17737;52.586;13.284;2023-05-01T10:51:26;52.72;50.35;59.28;;
61321;Laerm;17737;52.586;13.284;2023-05-01T10:54:24;53.58;50.60;62.36;;
61321;Laerm;17737;52.586;13.284;2023-05-01T10:56:54;53.46;50.66;62.86;;
61321;Laerm;17737;52.586;13.284;2023-05-01T10:59:24;53.53;50.77;60.37;;
61321;Laerm;17737;52.586;13.284;2023-05-01T11:01:54;54.55;50.58;65.45;;
61321;Laerm;17737;52.586;13.284;2023-05-01T11:04:48;52.52;50.60;62.63;;
61321;Laerm;17737;52.586;13.284;2023-05-01T11:07:22;53.90;50.58;62.77;;
61321;Laerm;17737;52.586;13.284;2023-05-01T11:09:54;53.73;50.82;63.08;;
61321;Laerm;17737;52.586;13.284;2023-05-01T11:12:50;53.60;50.67;60.07;;
61321;Laerm;17737;52.586;13.284;2023-05-01T11:15:27;53.23;50.43;70.19;;
61321;Laerm;17737;52.586;13.284;2023-05-01T11:17:56;53.82;50.66;65.88;;
61321;Laerm;17737;52.586;13.284;2023-05-01T11:20:47;54.34;50.80;68.39;;
61321;Laerm;17737;52.586;13.284;2023-05-01T11:23:21;53.40;50.66;65.76;;
61321;Laerm;17737;52.586;13.284;2023-05-01T11:26:02;57.55;50.56;80.09;;
61321;Laerm;17737;52.586;13.284;2023-05-01T11:28:37;53.45;50.58;62.56;;
61321;Laerm;17737;52.586;13.284;2023-05-01T11:31:06;52.98;50.49;60.59;;
61321;Laerm;17737;52.586;13.284;2023-05-01T11:33:34;53.48;50.81;61.80;;
61321;Laerm;17737;52.586;13.284;2023-05-01T11:36:03;52.46;50.39;56.28;;
61321;Laerm;17737;52.586;13.284;2023-05-01T11:38:31;52.68;50.56;60.55;;
61321;Laerm;17737;52.586;13.284;2023-05-01T11:41:02;52.58;50.44;57.99;;
61321;Laerm;17737;52.586;13.284;2023-05-01T11:43:31;52.72;50.58;61.18;;
61321;Laerm;17737;52.586;13.284;2023-05-01T11:45:59;52.79;50.45;57.14;;
61321;Laerm;17737;52.586;13.284;2023-05-01T11:48:30;52.78;50.41;57.87;;
61321;Laerm;17737;52.586;13.284;2023-05-01T11:50:59;54.27;50.53;63.96;;
61321;Laerm;17737;52.586;13.284;2023-05-01T11:53:27;53.65;50.78;61.86;;
61321;Laerm;17737;52.586;13.284;2023-05-01T11:55:56;52.54;50.58;62.37;;
61321;Laerm;17737;52.586;13.284;2023-05-01T11:58:33;53.45;50.79;62.27;;
61321;Laerm;17737;52.586;13.284;2023-05-01T12:01:03;53.08;50.68;60.15;;
61321;Laerm;17737;52.586;13.284;2023-05-01T12:03:42;53.09;50.60;61.90;;
61321;Laerm;17737;52.586;13.284;2023-05-01T12:06:12;56.29;50.72;69.34;;
61321;Laerm;17737;52.586;13.284;2023-05-01T12:08:47;53.96;50.73;61.74;;
61321;Laerm;17737;52.586;13.284;2023-05-01T12:11:17;54.66;50.56;68.27;;
61321;Laerm;17737;52.586;13.284;2023-05-01T12:13:47;53.55;50.63;62.30;;
61321;Laerm;17737;52.586;13.284;2023-05-01T12:16:15;53.33;50.54;62.13;;
61321;Laerm;17737;52.586;13.284;2023-05-01T12:18:44;54.06;50.69;60.68;;
61321;Laerm;17737;52.586;13.284;2023-05-01T12:21:15;55.32;50.68;65.86;;
61321;Laerm;17737;52.586;13.284;2023-05-01T12:23:44;53.28;50.68;63.97;;
61321;Laerm;17737;52.586;13.284;2023-05-01T12:26:17;53.36;50.68;57.78;;
61321;Laerm;17737;52.586;13.284;2023-05-01T12:28:58;52.95;50.55;57.95;;
61321;Laerm;17737;52.586;13.284;2023-05-01T12:31:28;54.11;50.75;64.37;;
61321;Laerm;17737;52.586;13.284;2023-05-01T12:33:59;53.56;50.69;60.40;;
61321;Laerm;17737;52.586;13.284;2023-05-01T12:36:30;53.46;50.65;60.05;;
61321;Laerm;17737;52.586;13.284;2023-05-01T12:39:01;53.70;50.55;61.17;;
61321;Laerm;17737;52.586;13.284;2023-05-01T12:41:37;53.74;50.76;67.90;;
61321;Laerm;17737;52.586;13.284;2023-05-01T12:44:22;53.87;50.64;68.34;;
61321;Laerm;17737;52.586;13.284;2023-05-01T12:46:58;53.25;50.57;58.87;;
61321;Laerm;17737;52.586;13.284;2023-05-01T12:49:29;53.67;50.87;57.57;;
61321;Laerm;17737;52.586;13.284;2023-05-01T12:51:59;52.50;50.45;57.19;;
61321;Laerm;17737;52.586;13.284;2023-05-01T12:54:31;52.99;50.66;59.84;;
61321;Laerm;17737;52.586;13.284;2023-05-01T12:57:07;53.09;50.26;60.22;;
61321;Laerm;17737;52.586;13.284;2023-05-01T12:59:38;53.58;50.50;60.13;;
61321;Laerm;17737;52.586;13.284;2023-05-01T13:02:08;52.80;50.63;57.37;;
61321;Laerm;17737;52.586;13.284;2023-05-01T13:04:38;53.23;50.54;60.21;;
61321;Laerm;17737;52.586;13.284;2023-05-01T13:07:11;52.31;50.40;60.05;;
61321;Laerm;17737;52.586;13.284;2023-05-01T13:09:51;52.74;50.40;60.54;;
61321;Laerm;17737;52.586;13.284;2023-05-01T13:12:20;53.21;50.23;61.58;;
61321;Laerm;17737;52.586;13.284;2023-05-01T13:14:50;54.16;50.58;64.64;;
61321;Laerm;17737;52.586;13.284;2023-05-01T13:17:24;53.31;50.58;57.73;;
61321;Laerm;17737;52.586;13.284;2023-05-01T13:19:53;53.11;50.35;58.41;;
61321;Laerm;17737;52.586;13.284;2023-05-01T13:22:32;54.02;50.43;62.86;;
61321;Laerm;17737;52.586;13.284;2023-05-01T13:25:03;52.74;50.44;59.61;;
61321;Laerm;17737;52.586;13.284;2023-05-01T13:27:31;53.33;50.25;58.81;;
61321;Laerm;17737;52.586;13.284;2023-05-01T13:30:01;54.69;50.50;67.82;;
61321;Laerm;17737;52.586;13.284;2023-05-01T13:32:30;52.61;50.53;56.71;;
61321;Laerm;17737;52.586;13.284;2023-05-01T13:35:00;53.88;50.41;62.66;;
61321;Laerm;17737;52.586;13.284;2023-05-01T13:37:29;54.30;50.29;70.74;;
61321;Laerm;17737;52.586;13.284;2023-05-01T13:39:58;52.71;50.13;62.20;;
61321;Laerm;17737;52.586;13.284;2023-05-01T13:42:26;52.25;50.35;58.11;;
61321;Laerm;17737;52.586;13.284;2023-05-01T13:44:56;54.34;50.57;63.97;;
61321;Laerm;17737;52.586;13.284;2023-05-01T13:47:25;54.10;50.53;71.18;;
61321;Laerm;17737;52.586;13.284;2023-05-01T13:49:54;52.99;50.73;61.24;;
61321;Laerm;17737;52.586;13.284;2023-05-01T13:52:23;53.84;50.88;61.37;;
61321;Laerm;17737;52.586;13.284;2023-05-01T13:54:54;54.56;50.54;67.15;;